Crystal, Idaho
Current Conditions -  °F | °C
As of 9:14 AM on Friday 24 Oct 2014 (Local Time) from KONO Reporting Station
Light Rain Light Rain  
Wind Chill: 51°   Ceiling: 6000
Heat Index: 51°   Visibility: 3mi
Dew Point: 50°   Wind: 0mph
Humidity: 96%   Direction: NA
Pressure: 30.12"   Gusts: NA
Location:  44.398°N, 116.943°W
Report Text: KONO 241514Z AUTO 00000KT 3SM -RA BR FEW008 BKN060 OVC090 11/10 A3012 RMK AO2 P0001 T01060100
Loading
Personal Weather Stations






























Interactive Weather Map
Tropical Storm Tracking
New forecast layout! Learn more

10-Day Weather Forecast

Advertisements
Track Severe Weather on mobile